sensor_id;sensor_type;location;lat;lon;timestamp;P1;durP1;ratioP1;P2;durP2;ratioP2
78716;SDS011;68045;50.042;14.432;2023-03-12T00:02:23;20.38;;;9.27;;
78716;SDS011;68045;50.042;14.432;2023-03-12T00:06:25;24.95;;;9.07;;
78716;SDS011;68045;50.042;14.432;2023-03-12T00:10:26;13.75;;;7.07;;
78716;SDS011;68045;50.042;14.432;2023-03-12T00:14:29;20.17;;;8.68;;
78716;SDS011;68045;50.042;14.432;2023-03-12T00:18:30;19.83;;;8.75;;
78716;SDS011;68045;50.042;14.432;2023-03-12T00:22:31;15.48;;;7.70;;
78716;SDS011;68045;50.042;14.432;2023-03-12T00:26:33;15.23;;;7.88;;
78716;SDS011;68045;50.042;14.432;2023-03-12T00:30:34;21.05;;;9.13;;
78716;SDS011;68045;50.042;14.432;2023-03-12T00:34:35;21.13;;;8.85;;
78716;SDS011;68045;50.042;14.432;2023-03-12T00:38:36;17.25;;;8.27;;
78716;SDS011;68045;50.042;14.432;2023-03-12T00:42:37;18.02;;;8.65;;
78716;SDS011;68045;50.042;14.432;2023-03-12T00:46:38;16.98;;;8.00;;
78716;SDS011;68045;50.042;14.432;2023-03-12T00:50:39;18.25;;;8.68;;
78716;SDS011;68045;50.042;14.432;2023-03-12T00:54:41;17.95;;;9.10;;
78716;SDS011;68045;50.042;14.432;2023-03-12T00:58:42;17.48;;;8.85;;
78716;SDS011;68045;50.042;14.432;2023-03-12T01:02:44;18.25;;;7.60;;
78716;SDS011;68045;50.042;14.432;2023-03-12T01:06:45;18.63;;;8.02;;
78716;SDS011;68045;50.042;14.432;2023-03-12T01:10:46;20.75;;;9.50;;
78716;SDS011;68045;50.042;14.432;2023-03-12T01:14:47;16.42;;;9.23;;
78716;SDS011;68045;50.042;14.432;2023-03-12T01:18:48;20.55;;;7.25;;
78716;SDS011;68045;50.042;14.432;2023-03-12T01:22:49;19.33;;;7.45;;
78716;SDS011;68045;50.042;14.432;2023-03-12T01:26:50;15.18;;;6.95;;
78716;SDS011;68045;50.042;14.432;2023-03-12T01:30:52;19.60;;;7.80;;
78716;SDS011;68045;50.042;14.432;2023-03-12T01:34:53;18.65;;;6.85;;
78716;SDS011;68045;50.042;14.432;2023-03-12T01:38:55;11.00;;;5.60;;
78716;SDS011;68045;50.042;14.432;2023-03-12T01:42:58;10.13;;;6.20;;
78716;SDS011;68045;50.042;14.432;2023-03-12T01:46:59;13.00;;;6.10;;
78716;SDS011;68045;50.042;14.432;2023-03-12T01:51:00;15.10;;;6.97;;
78716;SDS011;68045;50.042;14.432;2023-03-12T01:59:21;12.13;;;5.40;;
78716;SDS011;68045;50.042;14.432;2023-03-12T02:03:26;10.48;;;5.68;;
78716;SDS011;68045;50.042;14.432;2023-03-12T02:07:28;12.48;;;5.78;;
78716;SDS011;68045;50.042;14.432;2023-03-12T02:11:29;13.75;;;6.00;;
78716;SDS011;68045;50.042;14.432;2023-03-12T02:15:31;9.38;;;5.03;;
78716;SDS011;68045;50.042;14.432;2023-03-12T02:28:21;10.48;;;5.28;;
78716;SDS011;68045;50.042;14.432;2023-03-12T02:32:27;9.45;;;4.55;;
78716;SDS011;68045;50.042;14.432;2023-03-12T02:36:32;8.77;;;4.65;;
78716;SDS011;68045;50.042;14.432;2023-03-12T02:40:34;18.60;;;7.10;;
78716;SDS011;68045;50.042;14.432;2023-03-12T02:44:39;12.07;;;4.93;;
78716;SDS011;68045;50.042;14.432;2023-03-12T02:48:40;13.65;;;6.70;;
78716;SDS011;68045;50.042;14.432;2023-03-12T02:52:41;16.48;;;4.78;;
78716;SDS011;68045;50.042;14.432;2023-03-12T02:56:44;11.57;;;5.63;;
78716;SDS011;68045;50.042;14.432;2023-03-12T03:00:46;11.93;;;4.70;;
78716;SDS011;68045;50.042;14.432;2023-03-12T03:04:48;10.50;;;4.95;;
78716;SDS011;68045;50.042;14.432;2023-03-12T03:08:50;13.20;;;4.85;;
78716;SDS011;68045;50.042;14.432;2023-03-12T03:12:51;14.30;;;5.60;;
78716;SDS011;68045;50.042;14.432;2023-03-12T03:16:52;12.07;;;5.40;;
78716;SDS011;68045;50.042;14.432;2023-03-12T03:20:57;11.43;;;4.55;;
78716;SDS011;68045;50.042;14.432;2023-03-12T03:24:59;7.80;;;3.97;;
78716;SDS011;68045;50.042;14.432;2023-03-12T03:29:00;18.73;;;5.88;;
78716;SDS011;68045;50.042;14.432;2023-03-12T03:33:01;10.48;;;4.38;;
78716;SDS011;68045;50.042;14.432;2023-03-12T03:37:02;10.55;;;5.13;;
78716;SDS011;68045;50.042;14.432;2023-03-12T03:41:05;10.77;;;5.40;;
78716;SDS011;68045;50.042;14.432;2023-03-12T03:45:11;8.20;;;4.95;;
78716;SDS011;68045;50.042;14.432;2023-03-12T03:49:14;12.10;;;4.45;;
78716;SDS011;68045;50.042;14.432;2023-03-12T03:53:17;9.95;;;4.30;;
78716;SDS011;68045;50.042;14.432;2023-03-12T03:57:20;11.43;;;4.90;;
78716;SDS011;68045;50.042;14.432;2023-03-12T04:01:21;16.77;;;5.60;;
78716;SDS011;68045;50.042;14.432;2023-03-12T04:05:24;8.43;;;4.93;;
78716;SDS011;68045;50.042;14.432;2023-03-12T04:09:26;7.90;;;4.50;;
78716;SDS011;68045;50.042;14.432;2023-03-12T04:13:27;10.68;;;4.82;;
78716;SDS011;68045;50.042;14.432;2023-03-12T04:17:28;10.77;;;4.55;;
78716;SDS011;68045;50.042;14.432;2023-03-12T04:21:30;11.98;;;5.38;;
78716;SDS011;68045;50.042;14.432;2023-03-12T04:25:31;11.32;;;5.28;;
78716;SDS011;68045;50.042;14.432;2023-03-12T04:29:33;10.27;;;4.95;;
78716;SDS011;68045;50.042;14.432;2023-03-12T04:33:35;13.80;;;5.32;;
78716;SDS011;68045;50.042;14.432;2023-03-12T04:37:38;11.98;;;5.22;;
78716;SDS011;68045;50.042;14.432;2023-03-12T04:41:39;13.88;;;5.30;;
78716;SDS011;68045;50.042;14.432;2023-03-12T04:45:44;12.98;;;5.15;;
78716;SDS011;68045;50.042;14.432;2023-03-12T04:49:45;11.52;;;5.50;;
78716;SDS011;68045;50.042;14.432;2023-03-12T04:53:47;9.20;;;5.05;;
78716;SDS011;68045;50.042;14.432;2023-03-12T04:57:49;10.23;;;5.53;;
78716;SDS011;68045;50.042;14.432;2023-03-12T05:01:50;8.23;;;4.80;;
78716;SDS011;68045;50.042;14.432;2023-03-12T05:05:57;15.02;;;5.90;;
78716;SDS011;68045;50.042;14.432;2023-03-12T05:09:58;11.88;;;5.15;;
78716;SDS011;68045;50.042;14.432;2023-03-12T05:13:59;10.50;;;4.88;;
78716;SDS011;68045;50.042;14.432;2023-03-12T05:18:02;12.90;;;5.88;;
78716;SDS011;68045;50.042;14.432;2023-03-12T05:22:03;15.93;;;5.18;;
78716;SDS011;68045;50.042;14.432;2023-03-12T05:26:06;11.25;;;4.88;;
78716;SDS011;68045;50.042;14.432;2023-03-12T05:30:08;10.38;;;5.25;;
78716;SDS011;68045;50.042;14.432;2023-03-12T05:34:11;13.18;;;5.25;;
78716;SDS011;68045;50.042;14.432;2023-03-12T05:38:16;9.57;;;4.82;;
78716;SDS011;68045;50.042;14.432;2023-03-12T05:42:17;9.20;;;4.82;;
78716;SDS011;68045;50.042;14.432;2023-03-12T05:46:19;9.25;;;5.22;;
78716;SDS011;68045;50.042;14.432;2023-03-12T05:50:21;12.35;;;5.63;;
78716;SDS011;68045;50.042;14.432;2023-03-12T05:54:22;14.32;;;5.50;;
78716;SDS011;68045;50.042;14.432;2023-03-12T05:58:25;8.80;;;4.80;;
78716;SDS011;68045;50.042;14.432;2023-03-12T06:02:27;9.77;;;5.22;;
78716;SDS011;68045;50.042;14.432;2023-03-12T06:06:29;11.38;;;5.32;;
78716;SDS011;68045;50.042;14.432;2023-03-12T06:10:36;9.32;;;4.30;;
78716;SDS011;68045;50.042;14.432;2023-03-12T06:14:38;9.93;;;5.43;;
78716;SDS011;68045;50.042;14.432;2023-03-12T06:18:40;10.15;;;4.75;;
78716;SDS011;68045;50.042;14.432;2023-03-12T06:22:41;11.52;;;4.93;;
78716;SDS011;68045;50.042;14.432;2023-03-12T06:26:43;11.38;;;4.82;;
78716;SDS011;68045;50.042;14.432;2023-03-12T06:30:44;10.02;;;4.43;;
78716;SDS011;68045;50.042;14.432;2023-03-12T06:34:45;14.23;;;5.20;;
78716;SDS011;68045;50.042;14.432;2023-03-12T06:38:46;9.35;;;4.50;;
78716;SDS011;68045;50.042;14.432;2023-03-12T06:42:47;13.40;;;5.45;;
78716;SDS011;68045;50.042;14.432;2023-03-12T06:46:48;14.02;;;5.00;;
78716;SDS011;68045;50.042;14.432;2023-03-12T06:50:50;10.00;;;4.28;;
78716;SDS011;68045;50.042;14.432;2023-03-12T06:54:51;8.52;;;4.55;;
78716;SDS011;68045;50.042;14.432;2023-03-12T06:58:52;11.90;;;4.72;;
78716;SDS011;68045;50.042;14.432;2023-03-12T07:02:54;9.23;;;4.13;;
78716;SDS011;68045;50.042;14.432;2023-03-12T07:06:55;10.60;;;4.53;;
78716;SDS011;68045;50.042;14.432;2023-03-12T07:10:57;10.05;;;4.57;;
78716;SDS011;68045;50.042;14.432;2023-03-12T07:15:00;9.25;;;4.95;;
78716;SDS011;68045;50.042;14.432;2023-03-12T07:19:01;9.18;;;4.95;;
78716;SDS011;68045;50.042;14.432;2023-03-12T07:23:02;15.15;;;5.10;;
78716;SDS011;68045;50.042;14.432;2023-03-12T07:27:03;11.13;;;3.95;;
78716;SDS011;68045;50.042;14.432;2023-03-12T07:31:04;8.48;;;3.95;;
78716;SDS011;68045;50.042;14.432;2023-03-12T07:35:06;9.05;;;4.55;;
78716;SDS011;68045;50.042;14.432;2023-03-12T07:39:07;10.32;;;4.78;;
78716;SDS011;68045;50.042;14.432;2023-03-12T07:43:08;9.05;;;4.10;;
78716;SDS011;68045;50.042;14.432;2023-03-12T07:47:14;9.00;;;4.55;;
78716;SDS011;68045;50.042;14.432;2023-03-12T07:51:15;10.02;;;4.50;;
78716;SDS011;68045;50.042;14.432;2023-03-12T07:55:16;8.48;;;4.22;;
78716;SDS011;68045;50.042;14.432;2023-03-12T07:59:17;12.60;;;4.57;;
78716;SDS011;68045;50.042;14.432;2023-03-12T08:03:19;11.23;;;5.00;;
78716;SDS011;68045;50.042;14.432;2023-03-12T08:07:20;8.63;;;4.78;;
78716;SDS011;68045;50.042;14.432;2023-03-12T08:11:21;9.30;;;4.95;;
78716;SDS011;68045;50.042;14.432;2023-03-12T08:15:23;11.18;;;4.93;;
78716;SDS011;68045;50.042;14.432;2023-03-12T08:19:25;6.47;;;3.45;;
78716;SDS011;68045;50.042;14.432;2023-03-12T08:23:26;6.85;;;3.92;;
78716;SDS011;68045;50.042;14.432;2023-03-12T08:27:27;10.32;;;4.60;;
78716;SDS011;68045;50.042;14.432;2023-03-12T08:31:28;11.77;;;4.00;;
78716;SDS011;68045;50.042;14.432;2023-03-12T08:35:29;9.88;;;4.20;;
78716;SDS011;68045;50.042;14.432;2023-03-12T08:39:31;11.35;;;4.47;;
78716;SDS011;68045;50.042;14.432;2023-03-12T08:43:32;7.90;;;4.15;;
78716;SDS011;68045;50.042;14.432;2023-03-12T08:47:33;6.72;;;3.75;;
78716;SDS011;68045;50.042;14.432;2023-03-12T08:51:34;8.98;;;4.38;;
78716;SDS011;68045;50.042;14.432;2023-03-12T08:55:35;8.10;;;4.00;;
78716;SDS011;68045;50.042;14.432;2023-03-12T08:59:37;7.03;;;4.03;;
78716;SDS011;68045;50.042;14.432;2023-03-12T09:03:38;7.57;;;3.85;;
78716;SDS011;68045;50.042;14.432;2023-03-12T09:11:42;6.50;;;3.28;;
78716;SDS011;68045;50.042;14.432;2023-03-12T09:15:43;7.75;;;3.50;;
78716;SDS011;68045;50.042;14.432;2023-03-12T09:19:44;6.50;;;3.15;;
78716;SDS011;68045;50.042;14.432;2023-03-12T09:23:45;6.55;;;2.90;;
78716;SDS011;68045;50.042;14.432;2023-03-12T09:27:46;6.40;;;3.22;;
78716;SDS011;68045;50.042;14.432;2023-03-12T09:31:48;6.13;;;3.05;;
78716;SDS011;68045;50.042;14.432;2023-03-12T09:35:58;5.95;;;2.75;;
78716;SDS011;68045;50.042;14.432;2023-03-12T09:40:00;6.95;;;3.08;;
78716;SDS011;68045;50.042;14.432;2023-03-12T09:44:12;6.88;;;4.07;;
78716;SDS011;68045;50.042;14.432;2023-03-12T09:48:30;4.93;;;2.47;;
78716;SDS011;68045;50.042;14.432;2023-03-12T09:52:43;5.15;;;2.65;;
78716;SDS011;68045;50.042;14.432;2023-03-12T09:56:50;5.90;;;2.70;;
78716;SDS011;68045;50.042;14.432;2023-03-12T10:00:57;5.07;;;2.58;;
78716;SDS011;68045;50.042;14.432;2023-03-12T10:05:17;5.40;;;2.75;;
78716;SDS011;68045;50.042;14.432;2023-03-12T10:13:52;8.80;;;2.67;;
78716;SDS011;68045;50.042;14.432;2023-03-12T10:30:53;4.57;;;2.50;;
78716;SDS011;68045;50.042;14.432;2023-03-12T10:34:58;4.55;;;2.60;;
78716;SDS011;68045;50.042;14.432;2023-03-12T10:39:04;5.78;;;2.80;;
78716;SDS011;68045;50.042;14.432;2023-03-12T10:43:14;4.05;;;2.40;;
78716;SDS011;68045;50.042;14.432;2023-03-12T10:47:27;4.82;;;2.90;;
78716;SDS011;68045;50.042;14.432;2023-03-12T10:51:42;3.65;;;2.53;;
78716;SDS011;68045;50.042;14.432;2023-03-12T10:56:14;6.75;;;2.75;;
78716;SDS011;68045;50.042;14.432;2023-03-12T11:00:17;6.15;;;2.50;;
78716;SDS011;68045;50.042;14.432;2023-03-12T11:04:30;7.00;;;3.13;;
78716;SDS011;68045;50.042;14.432;2023-03-12T11:08:33;3.97;;;2.67;;
78716;SDS011;68045;50.042;14.432;2023-03-12T11:12:36;6.28;;;2.78;;
78716;SDS011;68045;50.042;14.432;2023-03-12T11:16:39;7.28;;;2.90;;
78716;SDS011;68045;50.042;14.432;2023-03-12T11:20:40;8.18;;;3.20;;
78716;SDS011;68045;50.042;14.432;2023-03-12T11:24:55;3.83;;;2.70;;
78716;SDS011;68045;50.042;14.432;2023-03-12T11:29:00;4.40;;;3.03;;
78716;SDS011;68045;50.042;14.432;2023-03-12T11:33:04;4.60;;;2.60;;
78716;SDS011;68045;50.042;14.432;2023-03-12T11:37:20;4.18;;;2.50;;
78716;SDS011;68045;50.042;14.432;2023-03-12T11:55:14;5.88;;;2.78;;
78716;SDS011;68045;50.042;14.432;2023-03-12T12:17:09;7.25;;;3.83;;
78716;SDS011;68045;50.042;14.432;2023-03-12T12:38:28;5.15;;;2.72;;
78716;SDS011;68045;50.042;14.432;2023-03-12T12:47:39;6.70;;;3.22;;
78716;SDS011;68045;50.042;14.432;2023-03-12T12:51:47;5.43;;;2.60;;
78716;SDS011;68045;50.042;14.432;2023-03-12T12:56:09;7.57;;;2.83;;
78716;SDS011;68045;50.042;14.432;2023-03-12T13:04:38;8.57;;;3.15;;
78716;SDS011;68045;50.042;14.432;2023-03-12T13:12:51;5.38;;;3.08;;
78716;SDS011;68045;50.042;14.432;2023-03-12T13:17:04;5.15;;;3.00;;
78716;SDS011;68045;50.042;14.432;2023-03-12T13:33:39;6.78;;;3.03;;
78716;SDS011;68045;50.042;14.432;2023-03-12T13:41:55;7.75;;;3.28;;
78716;SDS011;68045;50.042;14.432;2023-03-12T13:46:04;5.95;;;2.83;;
78716;SDS011;68045;50.042;14.432;2023-03-12T13:50:14;7.68;;;2.92;;
78716;SDS011;68045;50.042;14.432;2023-03-12T13:54:17;6.85;;;2.90;;
78716;SDS011;68045;50.042;14.432;2023-03-12T13:58:19;5.80;;;2.92;;
78716;SDS011;68045;50.042;14.432;2023-03-12T14:02:24;9.52;;;3.25;;
78716;SDS011;68045;50.042;14.432;2023-03-12T14:06:29;10.60;;;2.70;;
78716;SDS011;68045;50.042;14.432;2023-03-12T14:19:18;9.90;;;2.85;;
78716;SDS011;68045;50.042;14.432;2023-03-12T14:23:26;5.38;;;2.60;;
78716;SDS011;68045;50.042;14.432;2023-03-12T14:27:30;8.73;;;2.70;;
78716;SDS011;68045;50.042;14.432;2023-03-12T14:31:33;5.88;;;2.58;;
78716;SDS011;68045;50.042;14.432;2023-03-12T14:35:37;5.47;;;2.53;;
78716;SDS011;68045;50.042;14.432;2023-03-12T14:39:55;7.50;;;2.90;;
78716;SDS011;68045;50.042;14.432;2023-03-12T14:44:11;7.03;;;2.80;;
78716;SDS011;68045;50.042;14.432;2023-03-12T14:48:22;7.32;;;2.95;;
78716;SDS011;68045;50.042;14.432;2023-03-12T14:52:28;5.07;;;2.55;;
78716;SDS011;68045;50.042;14.432;2023-03-12T14:56:33;7.18;;;2.92;;
78716;SDS011;68045;50.042;14.432;2023-03-12T15:00:35;8.13;;;2.97;;
78716;SDS011;68045;50.042;14.432;2023-03-12T15:04:36;6.10;;;2.65;;
78716;SDS011;68045;50.042;14.432;2023-03-12T15:08:38;6.45;;;2.85;;
78716;SDS011;68045;50.042;14.432;2023-03-12T15:12:43;4.15;;;2.47;;
78716;SDS011;68045;50.042;14.432;2023-03-12T15:16:45;8.70;;;3.50;;
78716;SDS011;68045;50.042;14.432;2023-03-12T15:20:47;6.80;;;3.40;;
78716;SDS011;68045;50.042;14.432;2023-03-12T15:37:28;8.02;;;3.13;;
78716;SDS011;68045;50.042;14.432;2023-03-12T15:41:42;6.57;;;2.90;;
78716;SDS011;68045;50.042;14.432;2023-03-12T15:45:55;6.95;;;3.28;;
78716;SDS011;68045;50.042;14.432;2023-03-12T15:50:02;6.70;;;3.33;;
78716;SDS011;68045;50.042;14.432;2023-03-12T15:58:26;6.88;;;3.40;;
78716;SDS011;68045;50.042;14.432;2023-03-12T16:02:35;8.75;;;3.78;;
78716;SDS011;68045;50.042;14.432;2023-03-12T16:06:38;6.03;;;3.20;;
78716;SDS011;68045;50.042;14.432;2023-03-12T16:10:40;7.60;;;3.60;;
78716;SDS011;68045;50.042;14.432;2023-03-12T16:14:41;6.88;;;3.40;;
78716;SDS011;68045;50.042;14.432;2023-03-12T16:18:42;5.80;;;3.33;;
78716;SDS011;68045;50.042;14.432;2023-03-12T16:22:44;4.38;;;2.65;;
78716;SDS011;68045;50.042;14.432;2023-03-12T16:26:46;5.47;;;2.70;;
78716;SDS011;68045;50.042;14.432;2023-03-12T16:30:51;5.50;;;2.45;;
78716;SDS011;68045;50.042;14.432;2023-03-12T16:34:52;4.97;;;2.55;;
78716;SDS011;68045;50.042;14.432;2023-03-12T16:38:54;9.38;;;3.03;;
78716;SDS011;68045;50.042;14.432;2023-03-12T16:42:55;7.90;;;3.00;;
78716;SDS011;68045;50.042;14.432;2023-03-12T16:47:00;6.78;;;3.08;;
78716;SDS011;68045;50.042;14.432;2023-03-12T16:51:00;6.20;;;2.97;;
78716;SDS011;68045;50.042;14.432;2023-03-12T16:55:03;5.43;;;3.05;;
78716;SDS011;68045;50.042;14.432;2023-03-12T16:59:05;8.45;;;3.35;;
78716;SDS011;68045;50.042;14.432;2023-03-12T17:03:15;7.03;;;3.05;;
78716;SDS011;68045;50.042;14.432;2023-03-12T17:07:34;5.38;;;3.28;;
78716;SDS011;68045;50.042;14.432;2023-03-12T17:11:35;7.20;;;3.33;;
78716;SDS011;68045;50.042;14.432;2023-03-12T17:15:37;7.45;;;3.33;;
78716;SDS011;68045;50.042;14.432;2023-03-12T17:19:38;5.30;;;3.10;;
78716;SDS011;68045;50.042;14.432;2023-03-12T17:23:39;5.70;;;3.03;;
78716;SDS011;68045;50.042;14.432;2023-03-12T17:27:41;7.45;;;3.17;;
78716;SDS011;68045;50.042;14.432;2023-03-12T17:31:42;7.07;;;3.53;;
78716;SDS011;68045;50.042;14.432;2023-03-12T17:35:43;5.97;;;3.20;;
78716;SDS011;68045;50.042;14.432;2023-03-12T17:39:45;5.30;;;3.33;;
78716;SDS011;68045;50.042;14.432;2023-03-12T17:43:47;5.30;;;3.03;;
78716;SDS011;68045;50.042;14.432;2023-03-12T17:47:48;7.20;;;3.80;;
78716;SDS011;68045;50.042;14.432;2023-03-12T17:51:50;6.40;;;3.42;;
78716;SDS011;68045;50.042;14.432;2023-03-12T17:55:51;6.78;;;4.00;;
78716;SDS011;68045;50.042;14.432;2023-03-12T17:59:52;8.57;;;4.28;;
78716;SDS011;68045;50.042;14.432;2023-03-12T18:03:53;7.97;;;3.90;;
78716;SDS011;68045;50.042;14.432;2023-03-12T18:07:56;6.50;;;3.55;;
78716;SDS011;68045;50.042;14.432;2023-03-12T18:11:57;9.07;;;3.72;;
78716;SDS011;68045;50.042;14.432;2023-03-12T18:15:58;12.57;;;4.57;;
78716;SDS011;68045;50.042;14.432;2023-03-12T18:20:00;8.00;;;3.65;;
78716;SDS011;68045;50.042;14.432;2023-03-12T18:24:07;7.72;;;3.97;;
78716;SDS011;68045;50.042;14.432;2023-03-12T18:28:08;10.70;;;4.60;;
78716;SDS011;68045;50.042;14.432;2023-03-12T18:32:10;8.85;;;4.20;;
78716;SDS011;68045;50.042;14.432;2023-03-12T18:36:11;10.57;;;4.45;;
78716;SDS011;68045;50.042;14.432;2023-03-12T18:40:12;9.05;;;4.43;;
78716;SDS011;68045;50.042;14.432;2023-03-12T18:44:14;6.70;;;3.88;;
78716;SDS011;68045;50.042;14.432;2023-03-12T18:48:15;6.68;;;4.03;;
78716;SDS011;68045;50.042;14.432;2023-03-12T18:52:16;8.68;;;4.35;;
78716;SDS011;68045;50.042;14.432;2023-03-12T18:56:17;6.15;;;3.72;;
78716;SDS011;68045;50.042;14.432;2023-03-12T19:00:18;7.13;;;3.65;;
78716;SDS011;68045;50.042;14.432;2023-03-12T19:04:19;6.03;;;3.40;;
78716;SDS011;68045;50.042;14.432;2023-03-12T19:08:21;5.47;;;3.42;;
78716;SDS011;68045;50.042;14.432;2023-03-12T19:12:22;4.85;;;2.95;;
78716;SDS011;68045;50.042;14.432;2023-03-12T19:16:23;4.85;;;3.00;;
78716;SDS011;68045;50.042;14.432;2023-03-12T19:20:24;6.68;;;3.20;;
78716;SDS011;68045;50.042;14.432;2023-03-12T19:24:26;6.40;;;3.45;;
78716;SDS011;68045;50.042;14.432;2023-03-12T19:28:27;5.80;;;3.25;;
78716;SDS011;68045;50.042;14.432;2023-03-12T19:32:28;7.75;;;3.40;;
78716;SDS011;68045;50.042;14.432;2023-03-12T19:36:29;4.95;;;3.08;;
78716;SDS011;68045;50.042;14.432;2023-03-12T19:40:29;5.60;;;3.53;;
78716;SDS011;68045;50.042;14.432;2023-03-12T19:44:30;5.75;;;3.05;;
78716;SDS011;68045;50.042;14.432;2023-03-12T19:48:35;5.00;;;2.78;;
78716;SDS011;68045;50.042;14.432;2023-03-12T19:52:36;7.72;;;3.58;;
78716;SDS011;68045;50.042;14.432;2023-03-12T19:56:38;5.05;;;3.20;;
78716;SDS011;68045;50.042;14.432;2023-03-12T20:00:39;6.03;;;3.03;;
78716;SDS011;68045;50.042;14.432;2023-03-12T20:04:41;5.68;;;3.53;;
78716;SDS011;68045;50.042;14.432;2023-03-12T20:08:42;7.13;;;3.83;;
78716;SDS011;68045;50.042;14.432;2023-03-12T20:12:45;6.47;;;3.72;;
78716;SDS011;68045;50.042;14.432;2023-03-12T20:16:46;6.57;;;3.78;;
78716;SDS011;68045;50.042;14.432;2023-03-12T20:24:51;6.72;;;4.15;;
78716;SDS011;68045;50.042;14.432;2023-03-12T20:28:53;5.90;;;3.80;;
78716;SDS011;68045;50.042;14.432;2023-03-12T20:32:54;6.90;;;4.13;;
78716;SDS011;68045;50.042;14.432;2023-03-12T20:36:56;7.57;;;4.18;;
78716;SDS011;68045;50.042;14.432;2023-03-12T20:40:58;6.68;;;3.80;;
78716;SDS011;68045;50.042;14.432;2023-03-12T20:44:59;7.05;;;4.10;;
78716;SDS011;68045;50.042;14.432;2023-03-12T20:49:00;7.28;;;4.10;;
78716;SDS011;68045;50.042;14.432;2023-03-12T20:53:01;8.70;;;4.10;;
78716;SDS011;68045;50.042;14.432;2023-03-12T20:57:02;7.20;;;4.15;;
78716;SDS011;68045;50.042;14.432;2023-03-12T21:01:04;6.80;;;4.38;;
78716;SDS011;68045;50.042;14.432;2023-03-12T21:05:05;8.60;;;4.22;;
78716;SDS011;68045;50.042;14.432;2023-03-12T21:09:09;7.25;;;4.63;;
78716;SDS011;68045;50.042;14.432;2023-03-12T21:13:10;9.45;;;5.13;;
78716;SDS011;68045;50.042;14.432;2023-03-12T21:17:11;7.50;;;4.97;;
78716;SDS011;68045;50.042;14.432;2023-03-12T21:21:13;9.55;;;6.00;;
78716;SDS011;68045;50.042;14.432;2023-03-12T21:25:14;10.80;;;6.53;;
78716;SDS011;68045;50.042;14.432;2023-03-12T21:29:15;9.63;;;5.40;;
78716;SDS011;68045;50.042;14.432;2023-03-12T21:33:16;10.82;;;6.95;;
78716;SDS011;68045;50.042;14.432;2023-03-12T21:37:17;13.68;;;6.93;;
78716;SDS011;68045;50.042;14.432;2023-03-12T21:41:19;10.32;;;6.10;;
78716;SDS011;68045;50.042;14.432;2023-03-12T21:45:20;12.98;;;6.47;;
78716;SDS011;68045;50.042;14.432;2023-03-12T21:49:21;14.10;;;6.13;;
78716;SDS011;68045;50.042;14.432;2023-03-12T21:53:23;14.32;;;6.72;;
78716;SDS011;68045;50.042;14.432;2023-03-12T21:57:24;15.50;;;7.18;;
78716;SDS011;68045;50.042;14.432;2023-03-12T22:01:25;10.05;;;6.05;;
78716;SDS011;68045;50.042;14.432;2023-03-12T22:05:27;8.90;;;5.97;;
78716;SDS011;68045;50.042;14.432;2023-03-12T22:09:28;12.27;;;6.70;;
78716;SDS011;68045;50.042;14.432;2023-03-12T22:13:29;14.35;;;6.68;;
78716;SDS011;68045;50.042;14.432;2023-03-12T22:17:30;14.23;;;6.75;;
78716;SDS011;68045;50.042;14.432;2023-03-12T22:21:32;12.40;;;6.60;;
78716;SDS011;68045;50.042;14.432;2023-03-12T22:25:34;13.52;;;6.82;;
78716;SDS011;68045;50.042;14.432;2023-03-12T22:29:36;14.57;;;7.32;;
78716;SDS011;68045;50.042;14.432;2023-03-12T22:33:37;15.40;;;7.28;;
78716;SDS011;68045;50.042;14.432;2023-03-12T22:37:38;12.00;;;6.80;;
78716;SDS011;68045;50.042;14.432;2023-03-12T22:41:39;11.55;;;6.28;;
78716;SDS011;68045;50.042;14.432;2023-03-12T22:45:40;16.00;;;6.47;;
78716;SDS011;68045;50.042;14.432;2023-03-12T22:49:42;14.48;;;7.30;;
78716;SDS011;68045;50.042;14.432;2023-03-12T22:53:43;15.20;;;6.78;;
78716;SDS011;68045;50.042;14.432;2023-03-12T22:57:45;12.68;;;6.57;;
78716;SDS011;68045;50.042;14.432;2023-03-12T23:01:46;11.00;;;6.60;;
78716;SDS011;68045;50.042;14.432;2023-03-12T23:05:47;12.02;;;6.45;;
78716;SDS011;68045;50.042;14.432;2023-03-12T23:09:47;17.52;;;6.68;;
78716;SDS011;68045;50.042;14.432;2023-03-12T23:13:48;12.18;;;6.47;;
78716;SDS011;68045;50.042;14.432;2023-03-12T23:17:50;17.33;;;7.18;;
78716;SDS011;68045;50.042;14.432;2023-03-12T23:21:51;16.65;;;6.30;;
78716;SDS011;68045;50.042;14.432;2023-03-12T23:25:55;13.77;;;6.40;;
78716;SDS011;68045;50.042;14.432;2023-03-12T23:29:58;13.00;;;6.05;;
78716;SDS011;68045;50.042;14.432;2023-03-12T23:33:59;12.48;;;5.43;;
78716;SDS011;68045;50.042;14.432;2023-03-12T23:38:00;11.65;;;5.78;;
78716;SDS011;68045;50.042;14.432;2023-03-12T23:42:01;13.15;;;5.63;;
78716;SDS011;68045;50.042;14.432;2023-03-12T23:46:03;17.25;;;5.55;;
78716;SDS011;68045;50.042;14.432;2023-03-12T23:50:07;14.25;;;5.85;;
78716;SDS011;68045;50.042;14.432;2023-03-12T23:54:08;14.05;;;5.10;;
78716;SDS011;68045;50.042;14.432;2023-03-12T23:58:09;8.43;;;4.20;;
